createdAt,value
2018-09-14T00:01:08.873Z,11.60
2018-09-14T00:03:37.288Z,14.47
2018-09-14T00:06:05.672Z,10.17
2018-09-14T00:08:34.100Z,24.87
2018-09-14T00:11:02.489Z,7.83
2018-09-14T00:13:31.696Z,10.23
2018-09-14T00:16:00.096Z,17.73
2018-09-14T00:18:28.545Z,14.10
2018-09-14T00:20:57.174Z,20.10
2018-09-14T00:23:25.596Z,12.63
2018-09-14T00:25:53.995Z,8.53
2018-09-14T00:28:22.448Z,11.07
2018-09-14T00:30:51.199Z,16.43
2018-09-14T00:33:19.604Z,10.43
2018-09-14T00:35:48.172Z,10.67
2018-09-14T00:38:16.872Z,11.10
2018-09-14T00:40:45.296Z,16.37
2018-09-14T00:43:14.032Z,11.67
2018-09-14T00:45:42.427Z,12.53
2018-09-14T00:48:10.842Z,8.80
2018-09-14T00:50:39.230Z,7.37
2018-09-14T00:53:07.645Z,12.33
2018-09-14T00:55:36.048Z,7.73
2018-09-14T00:58:04.486Z,14.47
2018-09-14T01:00:32.969Z,9.43
2018-09-14T01:03:01.353Z,14.43
2018-09-14T01:05:29.754Z,15.87
2018-09-14T01:07:58.140Z,8.70
2018-09-14T01:10:26.528Z,18.60
2018-09-14T01:12:54.953Z,10.73
2018-09-14T01:15:23.394Z,14.93
2018-09-14T01:17:51.772Z,14.40
2018-09-14T01:20:20.258Z,12.70
2018-09-14T01:22:48.597Z,14.37
2018-09-14T01:25:16.975Z,8.20
2018-09-14T01:27:45.360Z,11.73
2018-09-14T01:30:13.932Z,8.20
2018-09-14T01:32:42.305Z,8.10
2018-09-14T01:35:16.007Z,15.33
2018-09-14T01:37:44.368Z,8.53
2018-09-14T01:40:12.771Z,9.67
2018-09-14T01:42:41.153Z,11.37
2018-09-14T01:45:10.272Z,9.10
2018-09-14T01:47:38.677Z,11.23
2018-09-14T01:50:07.432Z,6.93
2018-09-14T01:52:36.100Z,9.63
2018-09-14T01:55:05.172Z,10.93
2018-09-14T01:57:33.584Z,12.40
2018-09-14T02:00:02.129Z,9.07
2018-09-14T02:02:30.524Z,9.53
2018-09-14T02:04:58.924Z,8.20
2018-09-14T02:07:27.320Z,12.13
2018-09-14T02:09:55.716Z,9.07
2018-09-14T02:12:24.112Z,13.47
2018-09-14T02:14:52.488Z,15.30
2018-09-14T02:17:20.885Z,13.00
2018-09-14T02:19:49.284Z,14.23
2018-09-14T02:22:17.708Z,12.47
2018-09-14T02:24:46.090Z,15.33
2018-09-14T02:27:14.472Z,9.20
2018-09-14T02:29:42.881Z,10.37
2018-09-14T02:32:11.292Z,11.43
2018-09-14T02:34:39.693Z,16.90
2018-09-14T02:37:08.760Z,15.00
2018-09-14T02:39:37.157Z,10.30
2018-09-14T02:42:05.792Z,9.23
2018-09-14T02:44:34.173Z,13.87
2018-09-14T02:47:02.562Z,12.30
2018-09-14T02:49:30.995Z,12.60
2018-09-14T02:51:59.472Z,15.60
2018-09-14T02:54:27.964Z,18.43
2018-09-14T02:56:56.337Z,13.30
2018-09-14T02:59:24.746Z,12.47
2018-09-14T03:01:53.404Z,13.87
2018-09-14T03:04:21.796Z,7.60
2018-09-14T03:06:50.201Z,9.40
2018-09-14T03:09:18.589Z,12.57
2018-09-14T03:11:47.023Z,10.60
2018-09-14T03:14:15.422Z,17.47
2018-09-14T03:16:43.788Z,13.13
2018-09-14T03:19:12.197Z,18.97
2018-09-14T03:21:40.588Z,15.03
2018-09-14T03:24:08.998Z,14.77
2018-09-14T03:26:37.399Z,13.00
2018-09-14T03:29:05.825Z,13.40
2018-09-14T03:31:34.216Z,10.70
2018-09-14T03:34:02.643Z,9.70
2018-09-14T03:36:31.025Z,12.53
2018-09-14T03:38:59.425Z,14.80
2018-09-14T03:41:27.798Z,12.07
2018-09-14T03:43:56.204Z,15.60
2018-09-14T03:46:24.583Z,22.23
2018-09-14T03:48:52.955Z,14.40
2018-09-14T03:51:21.345Z,14.70
2018-09-14T03:53:49.772Z,12.10
2018-09-14T03:56:18.215Z,10.73
2018-09-14T03:58:46.625Z,8.77
2018-09-14T04:01:15.020Z,13.30
2018-09-14T04:03:43.405Z,13.40
2018-09-14T04:06:11.976Z,15.63
2018-09-14T04:08:40.516Z,15.27
2018-09-14T04:11:09.038Z,14.83
2018-09-14T04:13:37.408Z,18.67
2018-09-14T04:16:06.286Z,18.17
2018-09-14T04:18:34.980Z,17.57
2018-09-14T04:21:03.449Z,20.20
2018-09-14T04:23:31.851Z,11.77
2018-09-14T04:26:00.268Z,10.73
2018-09-14T04:28:28.724Z,15.43
2018-09-14T04:30:57.136Z,12.17
2018-09-14T04:33:25.524Z,11.50
2018-09-14T04:35:54.006Z,18.13
2018-09-14T04:38:22.457Z,16.07
2018-09-14T04:40:50.815Z,13.43
2018-09-14T04:43:19.878Z,16.10
2018-09-14T04:45:48.296Z,15.77
2018-09-14T04:48:16.676Z,15.10
2018-09-14T04:50:45.081Z,19.20
2018-09-14T04:53:13.480Z,17.93
2018-09-14T04:55:41.862Z,17.57
2018-09-14T04:58:10.285Z,19.03
2018-09-14T05:00:38.681Z,20.43
2018-09-14T05:03:07.124Z,17.13
2018-09-14T05:05:35.500Z,13.93
2018-09-14T05:08:04.080Z,24.60
2018-09-14T05:10:32.548Z,13.23
2018-09-14T05:13:00.979Z,12.90
2018-09-14T05:15:29.348Z,16.20
2018-09-14T05:17:58.355Z,13.47
2018-09-14T05:20:26.792Z,15.17
2018-09-14T05:22:55.200Z,17.83
2018-09-14T05:25:23.589Z,13.20
2018-09-14T05:27:51.993Z,14.83
2018-09-14T05:30:20.402Z,27.60
2018-09-14T05:32:48.815Z,13.30
2018-09-14T05:35:17.193Z,16.10
2018-09-14T05:37:45.588Z,22.87
2018-09-14T05:40:14.001Z,17.10
2018-09-14T05:42:42.405Z,16.57
2018-09-14T05:45:10.784Z,23.43
2018-09-14T05:47:39.185Z,25.30
2018-09-14T05:50:07.604Z,18.50
2018-09-14T05:52:36.158Z,17.37
2018-09-14T05:55:04.862Z,19.77
2018-09-14T05:57:33.249Z,19.63
2018-09-14T06:00:01.705Z,17.20
2018-09-14T06:02:30.084Z,19.10
2018-09-14T06:04:58.497Z,19.00
2018-09-14T06:07:26.977Z,20.17
2018-09-14T06:09:55.377Z,22.77
2018-09-14T06:12:23.770Z,19.97
2018-09-14T06:14:52.169Z,16.97
2018-09-14T06:17:20.547Z,14.37
2018-09-14T06:19:48.941Z,14.63
2018-09-14T06:22:17.323Z,19.40
2018-09-14T06:24:45.756Z,20.33
2018-09-14T06:27:14.197Z,20.20
2018-09-14T06:29:42.557Z,18.03
2018-09-14T06:32:10.940Z,20.10
2018-09-14T06:34:39.420Z,16.47
2018-09-14T06:37:07.821Z,21.80
2018-09-14T06:39:36.273Z,20.37
2018-09-14T06:42:04.643Z,16.70
2018-09-14T06:44:33.055Z,21.37
2018-09-14T06:47:01.424Z,21.67
2018-09-14T06:49:29.865Z,22.07
2018-09-14T06:51:58.291Z,20.97
2018-09-14T06:54:26.701Z,22.30
2018-09-14T06:56:55.123Z,21.33
2018-09-14T06:59:23.513Z,22.80
2018-09-14T07:01:51.908Z,24.07
2018-09-14T07:04:20.306Z,21.80
2018-09-14T07:06:48.764Z,23.87
2018-09-14T07:09:17.160Z,21.67
2018-09-14T07:11:45.558Z,21.80
2018-09-14T07:14:14.096Z,17.17
2018-09-14T07:16:42.523Z,26.20
2018-09-14T07:19:11.022Z,19.97
2018-09-14T07:21:39.453Z,28.13
2018-09-14T07:24:07.876Z,23.70
2018-09-14T07:26:36.519Z,23.70
2018-09-14T07:29:04.945Z,30.53
2018-09-14T07:31:33.429Z,23.40
2018-09-14T07:34:01.770Z,22.40
2018-09-14T07:36:30.191Z,33.17
2018-09-14T07:38:58.632Z,26.90
2018-09-14T07:41:27.300Z,22.17
2018-09-14T07:43:55.901Z,28.10
2018-09-14T07:46:24.293Z,24.10
2018-09-14T07:48:52.704Z,24.07
2018-09-14T07:51:21.180Z,26.00
2018-09-14T07:53:49.663Z,22.80
2018-09-14T07:56:18.188Z,31.83
2018-09-14T07:58:46.700Z,28.20
2018-09-14T08:01:15.132Z,31.40
2018-09-14T08:03:43.519Z,31.97
2018-09-14T08:06:12.084Z,21.93
2018-09-14T08:08:40.482Z,29.37
2018-09-14T08:11:08.921Z,34.63
2018-09-14T08:13:37.304Z,27.27
2018-09-14T08:16:05.705Z,29.83
2018-09-14T08:18:34.130Z,35.13
2018-09-14T08:21:02.550Z,26.00
2018-09-14T08:23:30.931Z,29.17
2018-09-14T08:25:59.353Z,29.03
2018-09-14T08:28:27.779Z,34.50
2018-09-14T08:30:56.180Z,28.23
2018-09-14T08:33:24.736Z,26.23
2018-09-14T08:35:53.161Z,28.70
2018-09-14T08:38:21.564Z,27.40
2018-09-14T08:40:49.967Z,27.70
2018-09-14T08:43:18.421Z,29.40
2018-09-14T08:45:46.845Z,31.17
2018-09-14T08:48:15.248Z,20.50
2018-09-14T08:50:43.638Z,28.80
2018-09-14T08:53:12.045Z,30.07
2018-09-14T08:55:40.448Z,19.70
2018-09-14T08:58:08.922Z,29.13
2018-09-14T09:00:37.372Z,25.97
2018-09-14T09:03:05.758Z,21.43
2018-09-14T09:05:34.205Z,25.73
2018-09-14T09:08:02.628Z,22.43
2018-09-14T09:10:31.073Z,24.57
2018-09-14T09:12:59.498Z,20.63
2018-09-14T09:15:27.928Z,23.80
2018-09-14T09:17:56.342Z,19.17
2018-09-14T09:20:24.848Z,21.90
2018-09-14T09:22:53.271Z,22.37
2018-09-14T09:25:21.673Z,21.20
2018-09-14T09:27:50.129Z,24.67
2018-09-14T09:30:18.530Z,19.43
2018-09-14T09:32:46.948Z,20.10
2018-09-14T09:35:15.365Z,21.43
2018-09-14T09:37:43.793Z,15.80
2018-09-14T09:40:12.173Z,13.90
2018-09-14T09:42:40.593Z,15.00
2018-09-14T09:45:08.977Z,21.40
2018-09-14T09:47:37.396Z,13.47
2018-09-14T09:50:05.911Z,14.20
2018-09-14T09:52:34.313Z,18.53
2018-09-14T09:55:02.712Z,17.13
2018-09-14T09:57:31.197Z,16.40
2018-09-14T09:59:59.580Z,13.03
2018-09-14T10:02:29.684Z,16.47
2018-09-14T10:06:01.169Z,13.43
2018-09-14T10:08:30.300Z,16.07
2018-09-14T10:10:58.801Z,10.80
2018-09-14T10:13:27.188Z,11.30
2018-09-14T10:15:55.614Z,14.10
2018-09-14T10:18:24.011Z,8.97
2018-09-14T10:20:52.485Z,11.00
2018-09-14T10:23:20.972Z,15.57
2018-09-14T10:25:49.387Z,10.23
2018-09-14T10:28:17.764Z,14.53
2018-09-14T10:30:46.304Z,12.30
2018-09-14T10:33:14.683Z,10.20
2018-09-14T10:35:43.088Z,10.47
2018-09-14T10:38:11.541Z,11.30
2018-09-14T10:40:40.101Z,6.43
2018-09-14T10:43:08.488Z,11.67
2018-09-14T10:45:36.896Z,7.73
2018-09-14T10:48:05.339Z,9.00
2018-09-14T10:50:33.788Z,16.63
2018-09-14T10:53:02.316Z,12.20
2018-09-14T10:55:30.756Z,16.87
2018-09-14T10:57:59.229Z,11.00
2018-09-14T11:00:27.780Z,12.60
2018-09-14T11:02:56.264Z,10.60
2018-09-14T11:05:24.664Z,10.90
2018-09-14T11:07:53.082Z,10.07
2018-09-14T11:10:21.469Z,12.20
2018-09-14T11:12:49.929Z,11.07
2018-09-14T11:15:18.276Z,14.57
2018-09-14T11:17:46.692Z,13.27
2018-09-14T11:20:15.101Z,8.93
2018-09-14T11:22:43.607Z,14.73
2018-09-14T11:25:12.016Z,10.27
2018-09-14T11:27:40.404Z,11.97
2018-09-14T11:30:09.628Z,14.13
2018-09-14T11:32:38.047Z,15.40
2018-09-14T11:35:06.476Z,13.77
2018-09-14T11:37:34.920Z,10.63
2018-09-14T11:40:03.385Z,12.47
2018-09-14T11:42:32.341Z,11.17
2018-09-14T11:45:00.937Z,13.83
2018-09-14T11:50:03.410Z,9.73
2018-09-14T11:52:31.825Z,9.07
2018-09-14T11:55:00.253Z,14.40
2018-09-14T11:57:28.746Z,13.13
2018-09-14T11:59:57.140Z,11.93
2018-09-14T12:02:25.868Z,13.30
2018-09-14T12:04:55.408Z,12.10
2018-09-14T12:07:23.869Z,12.33
2018-09-14T12:09:53.166Z,15.83
2018-09-14T12:12:21.579Z,13.20
2018-09-14T12:14:51.021Z,11.07
2018-09-14T12:17:19.520Z,12.23
2018-09-14T12:19:48.064Z,11.07
2018-09-14T12:22:16.493Z,16.30
2018-09-14T12:24:45.013Z,11.03
2018-09-14T12:27:13.445Z,10.10
2018-09-14T12:29:41.854Z,11.23
2018-09-14T12:32:10.277Z,11.70
2018-09-14T12:34:38.673Z,8.73
2018-09-14T12:37:07.174Z,9.00
2018-09-14T12:39:35.704Z,15.53
2018-09-14T12:42:04.127Z,16.13
2018-09-14T12:44:32.647Z,10.73
2018-09-14T12:47:01.152Z,10.73
2018-09-14T12:49:30.014Z,9.10
2018-09-14T12:51:58.405Z,11.10
2018-09-14T12:54:26.849Z,9.20
2018-09-14T12:56:55.220Z,10.33
2018-09-14T12:59:23.641Z,9.80
2018-09-14T13:01:52.048Z,10.40
2018-09-14T13:04:20.590Z,14.07
2018-09-14T13:06:49.033Z,9.20
2018-09-14T13:09:17.441Z,11.67
2018-09-14T13:11:45.880Z,8.20
2018-09-14T13:14:18.529Z,9.73
2018-09-14T13:16:47.173Z,7.73
2018-09-14T13:19:15.600Z,8.20
2018-09-14T13:21:45.166Z,7.50
2018-09-14T13:24:13.671Z,7.63
2018-09-14T13:26:42.007Z,7.10
2018-09-14T13:29:10.384Z,10.03
2018-09-14T13:31:38.816Z,8.13
2018-09-14T13:34:07.217Z,5.43
2018-09-14T13:36:35.698Z,7.30
2018-09-14T13:39:07.516Z,7.40
2018-09-14T13:41:35.948Z,8.40
2018-09-14T13:44:04.355Z,9.10
2018-09-14T13:46:32.766Z,7.50
2018-09-14T13:49:01.166Z,8.60
2018-09-14T13:51:29.584Z,11.90
2018-09-14T13:53:58.018Z,9.67
2018-09-14T13:56:26.452Z,6.67
2018-09-14T13:58:54.882Z,10.80
2018-09-14T14:01:23.395Z,10.63
2018-09-14T14:03:51.802Z,9.77
2018-09-14T14:06:20.266Z,10.33
2018-09-14T14:08:49.048Z,9.77
2018-09-14T14:11:17.444Z,13.83
2018-09-14T14:13:45.941Z,9.50
2018-09-14T14:16:14.324Z,6.63
2018-09-14T14:18:42.790Z,8.17
2018-09-14T14:21:11.209Z,8.83
2018-09-14T14:23:39.620Z,6.80
2018-09-14T14:26:08.297Z,9.70
2018-09-14T14:28:36.710Z,9.00
2018-09-14T14:31:05.576Z,13.50
2018-09-14T14:33:33.992Z,6.03
2018-09-14T14:36:02.428Z,8.97
2018-09-14T14:38:30.951Z,9.30
2018-09-14T14:40:59.354Z,10.07
2018-09-14T14:43:27.776Z,8.53
2018-09-14T14:45:56.166Z,11.47
2018-09-14T14:48:24.594Z,10.23
2018-09-14T14:50:53.076Z,8.20
2018-09-14T14:53:21.534Z,6.53
2018-09-14T14:55:49.982Z,9.17
2018-09-14T14:58:18.421Z,5.43
2018-09-14T15:00:46.831Z,8.13
2018-09-14T15:03:15.276Z,8.00
2018-09-14T15:05:43.696Z,7.03
2018-09-14T15:08:12.128Z,11.23
2018-09-14T15:10:40.998Z,8.57
2018-09-14T15:13:09.465Z,6.47
2018-09-14T15:15:37.878Z,7.53
2018-09-14T15:18:06.409Z,14.23
2018-09-14T15:20:34.831Z,5.53
2018-09-14T15:23:03.236Z,8.70
2018-09-14T15:25:31.757Z,7.03
2018-09-14T15:28:00.170Z,11.17
2018-09-14T15:30:28.637Z,8.97
2018-09-14T15:32:57.033Z,10.73
2018-09-14T15:35:25.452Z,6.63
2018-09-14T15:37:54.956Z,10.47
2018-09-14T15:40:23.524Z,6.93
2018-09-14T15:42:51.920Z,7.30
2018-09-14T15:45:20.474Z,10.73
2018-09-14T15:47:48.932Z,10.47
2018-09-14T15:50:17.457Z,6.77
2018-09-14T15:52:46.138Z,9.57
2018-09-14T15:55:15.310Z,5.23
2018-09-14T15:57:43.808Z,8.00
2018-09-14T16:00:12.179Z,5.93
2018-09-14T16:02:40.608Z,7.43
2018-09-14T16:05:09.043Z,7.30
2018-09-14T16:07:37.443Z,7.73
2018-09-14T16:10:05.901Z,8.23
2018-09-14T16:12:34.336Z,8.00
2018-09-14T16:15:02.761Z,6.07
2018-09-14T16:17:31.252Z,6.90
2018-09-14T16:19:59.657Z,7.03
2018-09-14T16:22:28.065Z,11.60
2018-09-14T16:24:56.536Z,5.67
2018-09-14T16:27:24.948Z,6.60
2018-09-14T16:29:53.348Z,5.20
2018-09-14T16:32:21.783Z,12.93
2018-09-14T16:34:50.196Z,6.40
2018-09-14T16:37:18.633Z,6.50
2018-09-14T16:39:46.988Z,4.93
2018-09-14T16:42:15.372Z,7.20
2018-09-14T16:44:43.780Z,6.37
2018-09-14T16:47:12.252Z,6.00
2018-09-14T16:49:40.684Z,7.23
2018-09-14T16:52:09.101Z,5.13
2018-09-14T16:54:37.498Z,4.20
2018-09-14T16:57:05.979Z,6.17
2018-09-14T16:59:34.380Z,10.23
2018-09-14T17:02:02.785Z,6.60
2018-09-14T17:04:31.191Z,4.07
2018-09-14T17:06:59.609Z,5.53
2018-09-14T17:09:28.098Z,8.70
2018-09-14T17:11:56.701Z,5.57
2018-09-14T17:14:25.425Z,3.97
2018-09-14T17:16:53.810Z,5.63
2018-09-14T17:19:22.261Z,13.83
2018-09-14T17:21:51.108Z,4.20
2018-09-14T17:24:19.538Z,6.17
2018-09-14T17:26:47.941Z,7.07
2018-09-14T17:29:16.332Z,5.73
2018-09-14T17:31:44.752Z,6.60
2018-09-14T17:34:13.169Z,5.20
2018-09-14T17:36:41.594Z,13.33
2018-09-14T17:39:10.817Z,9.13
2018-09-14T17:41:39.288Z,5.97
2018-09-14T17:44:07.721Z,4.83
2018-09-14T17:46:36.135Z,9.50
2018-09-14T17:49:04.576Z,6.80
2018-09-14T17:51:33.179Z,5.33
2018-09-14T17:54:01.567Z,6.10
2018-09-14T17:56:30.009Z,6.20
2018-09-14T17:58:58.598Z,6.80
2018-09-14T18:01:26.988Z,7.07
2018-09-14T18:03:55.416Z,9.50
2018-09-14T18:06:23.837Z,11.00
2018-09-14T18:08:52.264Z,6.13
2018-09-14T18:11:20.767Z,4.10
2018-09-14T18:13:49.227Z,11.33
2018-09-14T18:16:17.691Z,4.07
2018-09-14T18:18:46.109Z,4.07
2018-09-14T18:21:14.592Z,11.30
2018-09-14T18:23:43.003Z,5.17
2018-09-14T18:26:11.616Z,6.40
2018-09-14T18:28:40.096Z,5.77
2018-09-14T18:31:08.582Z,14.00
2018-09-14T18:33:37.041Z,6.87
2018-09-14T18:36:05.550Z,7.60
2018-09-14T18:38:34.001Z,6.43
2018-09-14T18:41:02.465Z,5.63
2018-09-14T18:43:30.875Z,7.97
2018-09-14T18:45:59.373Z,7.20
2018-09-14T18:48:27.772Z,8.73
2018-09-14T18:50:56.184Z,6.40
2018-09-14T18:53:24.760Z,5.90
2018-09-14T18:55:53.186Z,9.37
2018-09-14T18:58:21.587Z,7.27
2018-09-14T19:00:50.124Z,6.97
2018-09-14T19:03:18.548Z,7.27
2018-09-14T19:05:47.047Z,11.70
2018-09-14T19:08:15.516Z,11.03
2018-09-14T19:10:44.060Z,7.40
2018-09-14T19:13:12.670Z,6.83
2018-09-14T19:15:41.052Z,8.03
2018-09-14T19:18:09.605Z,6.60
2018-09-14T19:20:38.087Z,7.47
2018-09-14T19:23:06.735Z,7.00
2018-09-14T19:25:35.137Z,7.20
2018-09-14T19:28:03.590Z,9.27
2018-09-14T19:30:31.980Z,9.00
2018-09-14T19:33:00.558Z,5.87
2018-09-14T19:35:28.956Z,6.80
2018-09-14T19:37:57.455Z,9.13
2018-09-14T19:40:26.104Z,8.50
2018-09-14T19:42:54.516Z,8.43
2018-09-14T19:45:22.921Z,9.13
2018-09-14T19:47:51.432Z,6.07
2018-09-14T19:50:19.989Z,6.93
2018-09-14T19:52:48.346Z,6.10
2018-09-14T19:55:16.869Z,7.97
2018-09-14T19:57:45.374Z,7.50
2018-09-14T20:00:13.826Z,15.73
2018-09-14T20:02:42.274Z,8.30
2018-09-14T20:05:10.693Z,7.47
2018-09-14T20:07:39.184Z,6.10
2018-09-14T20:10:07.662Z,11.03
2018-09-14T20:12:36.084Z,7.90
2018-09-14T20:15:05.204Z,9.90
2018-09-14T20:17:33.710Z,8.90
2018-09-14T20:20:02.154Z,5.93
2018-09-14T20:22:30.589Z,10.43
2018-09-14T20:24:59.105Z,12.30
2018-09-14T20:27:27.528Z,10.50
2018-09-14T20:29:55.952Z,10.00
2018-09-14T20:32:24.368Z,10.83
2018-09-14T20:34:52.880Z,8.33
2018-09-14T20:37:21.392Z,7.07
2018-09-14T20:39:49.765Z,9.60
2018-09-14T20:42:18.255Z,8.53
2018-09-14T20:44:46.698Z,14.03
2018-09-14T20:47:15.119Z,8.50
2018-09-14T20:49:43.593Z,7.40
2018-09-14T20:52:12.913Z,9.57
2018-09-14T20:54:42.220Z,8.07
2018-09-14T20:57:10.628Z,8.17
2018-09-14T20:59:39.400Z,11.27
2018-09-14T21:02:07.796Z,9.97
2018-09-14T21:04:37.024Z,7.83
2018-09-14T21:07:05.468Z,8.00
2018-09-14T21:09:33.877Z,9.80
2018-09-14T21:12:02.276Z,7.30
2018-09-14T21:14:30.689Z,6.03
2018-09-14T21:16:59.123Z,7.23
2018-09-14T21:19:27.562Z,7.47
2018-09-14T21:21:58.090Z,11.60
2018-09-14T21:24:27.635Z,14.00
2018-09-14T21:26:56.040Z,11.07
2018-09-14T21:29:24.442Z,9.90
2018-09-14T21:31:52.904Z,11.00
2018-09-14T21:34:21.529Z,11.13
2018-09-14T21:36:50.245Z,7.47
2018-09-14T21:39:18.659Z,7.80
2018-09-14T21:41:47.052Z,6.03
2018-09-14T21:44:15.457Z,7.73
2018-09-14T21:46:43.859Z,12.57
2018-09-14T21:49:12.215Z,11.80
2018-09-14T21:51:40.756Z,8.50
2018-09-14T21:54:09.239Z,10.83
2018-09-14T21:56:37.671Z,11.77
2018-09-14T21:59:06.169Z,7.50
2018-09-14T22:01:34.608Z,10.80
2018-09-14T22:04:03.453Z,9.83
2018-09-14T22:06:31.857Z,10.33
2018-09-14T22:09:01.050Z,12.20
2018-09-14T22:11:29.448Z,13.10
2018-09-14T22:13:58.825Z,9.33
2018-09-14T22:16:27.234Z,8.33
2018-09-14T22:18:55.664Z,9.30
2018-09-14T22:21:24.077Z,9.03
2018-09-14T22:23:52.505Z,7.70
2018-09-14T22:26:20.923Z,6.43
2018-09-14T22:28:49.335Z,7.50
2018-09-14T22:31:17.745Z,9.93
2018-09-14T22:33:46.174Z,9.83
2018-09-14T22:36:14.574Z,5.57
2018-09-14T22:38:42.993Z,6.40
2018-09-14T22:41:11.374Z,7.00
2018-09-14T22:43:39.781Z,8.23
2018-09-14T22:46:08.223Z,7.83
2018-09-14T22:48:36.682Z,9.20
2018-09-14T22:51:05.113Z,6.67
2018-09-14T22:53:33.547Z,8.03
2018-09-14T22:56:01.984Z,7.00
2018-09-14T22:58:30.405Z,9.83
2018-09-14T23:01:04.226Z,13.03
2018-09-14T23:03:32.693Z,7.87
2018-09-14T23:06:01.067Z,8.17
2018-09-14T23:08:29.468Z,5.93
2018-09-14T23:10:57.876Z,9.07
2018-09-14T23:13:26.263Z,9.43
2018-09-14T23:15:58.136Z,7.83
2018-09-14T23:18:26.915Z,10.67
2018-09-14T23:20:55.327Z,10.87
2018-09-14T23:23:23.870Z,10.50
2018-09-14T23:25:54.070Z,6.30
2018-09-14T23:28:22.447Z,8.00
2018-09-14T23:30:50.916Z,8.97
2018-09-14T23:33:19.291Z,11.97
2018-09-14T23:35:47.688Z,13.30
2018-09-14T23:38:16.060Z,5.80
2018-09-14T23:40:44.509Z,8.57
2018-09-14T23:43:12.900Z,12.83
2018-09-14T23:45:41.317Z,8.70
2018-09-14T23:48:09.706Z,10.47
2018-09-14T23:50:38.175Z,6.40
2018-09-14T23:53:06.625Z,11.00
2018-09-14T23:55:35.057Z,6.33
2018-09-14T23:58:03.448Z,5.00
